Have a Safe July 4th! 

Flight Track Log - Related Links

Times and Time Zones

All times are in EDT time to prevent confusion due to time zone crossing. See the KAP29 flight status page for this flight to view local times or setup timezone preferences in your user account.

Time Position Orientation Groundspeed Altitude Reporting Facility
EDT Latitude Longitude Course Direction KTS MPH feet Rate Location/Type
Sun 02:13:51 PM 42.3833 -71.0000 324° Northwest 110 127 600  Level KA90
Sun 02:15:03 PM 42.4167 -71.0333 324° Northwest 118 136 1,900 1,087 Climbing KA90
Sun 02:15:58 PM 42.4500 -71.0500 340° North 117 135 2,900 991 Climbing KA90
Sun 02:16:58 PM 42.4667 -71.0667 324° Northwest 124 143 3,800 850 Climbing KA90
Sun 02:17:58 PM 42.5000 -71.1000 324° Northwest 139 160 4,600 850 Climbing KA90
Sun 02:18:58 PM 42.5500 -71.1167 346° North 144 166 5,500 900 Climbing KA90
Sun 02:19:58 PM 42.5833 -71.1500 324° Northwest 139 160 6,400 893 Climbing KA90
Sun 02:20:59 PM 42.6167 -71.1667 340° North 140 161 7,300 694 Climbing KA90
Sun 02:21:59 PM 42.6500 -71.2000 324° Northwest 137 158 7,800 550 Climbing KA90
Sun 02:22:59 PM 42.6833 -71.2167 340° North 128 147 8,400 550 Climbing KA90
Sun 02:23:59 PM 42.7000 -71.2333 324° Northwest 127 146 8,900 550 Climbing KA90
Sun 02:24:59 PM 42.7333 -71.2667 324° Northwest 132 152 9,500 600 Climbing KA90
Sun 02:25:59 PM 42.7667 -71.2833 340° North 130 150 10,100 248 Climbing KA90
Sun 02:27:00 PM 42.8000 -71.3167 324° Northwest 139 160 10,000  Descending KA90
Sun 02:28:00 PM 42.8167 -71.3667 294° West 143 165 10,100 50 Climbing KA90
Sun 02:29:00 PM 42.8333 -71.4167 294° West 145 167 10,100  Level KA90
Sun 02:29:54 PM 42.8333 -71.4667 270° West 144 166 10,100  Level KA90
Sun 02:31:00 PM 42.8500 -71.5167 294° West 145 167 10,100  Level KA90
Sun 02:32:00 PM 42.8500 -71.5833 270° West 145 167 10,100  Level KA90
Sun 02:33:00 PM 42.8667 -71.6333 294° West 152 175 10,100 -47 Level KA90
Sun 02:34:08 PM 42.8897 -71.6864 301° West 179 206 10,000 -47 Descending Boston Center
Sun 02:35:08 PM 42.9439 -71.6856 North 166 191 10,000  Level Boston Center
Sun 02:36:08 PM 42.9939 -71.6650 17° North 181 208 10,000 50 Level Boston Center
Sun 02:37:08 PM 43.0417 -71.6675 358° North 176 203 10,100 50 Climbing Boston Center
Sun 02:38:08 PM 43.0836 -71.6811 347° North 162 186 10,100  Level Boston Center
Sun 02:39:08 PM 43.1211 -71.7061 334° Northwest 154 177 10,100 -50 Level Boston Center
Sun 02:40:08 PM 43.1339 -71.7544 290° West 136 157 10,000 -50 Descending Boston Center
Sun 02:41:08 PM 43.1572 -71.7997 305° West 136 157 10,000  Level Boston Center
Sun 02:42:08 PM 43.1783 -71.8422 304° West 136 157 10,000  Level Boston Center
Sun 02:43:08 PM 43.2036 -71.8847 309° West 146 168 10,000  Level Boston Center
Sun 02:44:32 PM 43.2392 -71.9414 311° West 151 174 10,000 42 Level Boston Center
Sun 02:45:32 PM 43.2622 -71.9725 316° Northwest 143 165 10,100  Climbing Boston Center
Sun 02:46:32 PM 43.2853 -72.0236 302° West 137 158 10,000 -50 Descending Boston Center
Sun 02:47:32 PM 43.2958 -72.0692 288° West 137 158 10,000  Level Boston Center
Sun 02:48:32 PM 43.3086 -72.1233 288° West 137 158 10,000  Level Boston Center
Sun 02:49:32 PM 43.3233 -72.1633 297° West 137 158 10,000  Level Boston Center
Sun 02:50:32 PM 43.3422 -72.2144 297° West 132 152 10,000 50 Level Boston Center
Sun 02:51:32 PM 43.3569 -72.2572 295° West 132 152 10,100  Climbing Boston Center
Sun 02:52:32 PM 43.3756 -72.3117 295° West 132 152 10,000 -50 Descending Boston Center
Sun 02:53:32 PM 43.3967 -72.3572 303° West 132 152 10,000  Level Boston Center
Sun 02:54:32 PM 43.4153 -72.4058 298° West 137 158 10,000  Level Boston Center
Sun 02:55:32 PM 43.4342 -72.4486 301° West 137 158 10,000  Level Boston Center
Sun 02:56:32 PM 43.4550 -72.4944 302° West 137 158 10,000  Level Boston Center
Sun 02:57:32 PM 43.4736 -72.5403 299° West 137 158 10,000  Level Boston Center
Sun 02:58:32 PM 43.4944 -72.5831 304° West 137 158 10,000  Level Boston Center
Sun 02:59:32 PM 43.5194 -72.6292 307° West 137 158 10,000  Level Boston Center
Sun 03:00:32 PM 43.5422 -72.6692 308° West 137 158 10,000  Level Boston Center
Sun 03:01:32 PM 43.5650 -72.7094 308° West 142 163 10,000  Level Boston Center
Sun 03:02:32 PM 43.5858 -72.7467 308° West 142 163 10,000  Level Boston Center
Sun 03:03:32 PM 43.6106 -72.7900 308° West 142 163 10,000  Level Boston Center
Sun 03:04:32 PM 43.6356 -72.8331 309° West 142 163 10,000  Level Boston Center
Sun 03:05:32 PM 43.6603 -72.8792 307° West 147 169 10,000 50 Level Boston Center
Sun 03:06:32 PM 43.6831 -72.9194 308° West 147 169 10,100 50 Climbing Boston Center
Sun 03:07:32 PM 43.7058 -72.9628 306° West 147 169 10,100  Level Boston Center
Sun 03:08:32 PM 43.7328 -73.0089 309° West 147 169 10,100  Level Boston Center
Sun 03:09:32 PM 43.7556 -73.0494 308° West 147 169 10,100  Level Boston Center
Sun 03:10:32 PM 43.7822 -73.0986 307° West 147 169 10,100  Level Boston Center
Sun 03:11:32 PM 43.8050 -73.1392 308° West 147 169 10,100  Level Boston Center
Sun 03:12:32 PM 43.8236 -73.1739 307° West 147 169 10,100  Level Boston Center
Sun 03:13:32 PM 43.8522 -73.2261 307° West 147 169 10,100  Level Boston Center
Sun 03:14:32 PM 43.8875 -73.2583 327° Northwest 147 169 10,100  Level Boston Center
Sun 03:15:32 PM 43.9206 -73.2903 325° Northwest 147 169 10,100  Level Boston Center
Sun 03:16:32 PM 43.9558 -73.3225 327° Northwest 147 169 10,100  Level Boston Center
Sun 03:17:32 PM 43.9889 -73.3547 325° Northwest 147 169 10,100  Level Boston Center
Sun 03:18:32 PM 44.0219 -73.3869 325° Northwest 147 169 10,100  Level Boston Center
Sun 03:19:32 PM 44.0550 -73.4222 323° Northwest 147 169 10,100  Level Boston Center
Sun 03:20:32 PM 44.0903 -73.4517 329° Northwest 147 169 10,100  Level Boston Center
Sun 03:21:32 PM 44.1253 -73.4842 326° Northwest 147 169 10,100  Level Boston Center
Sun 03:22:32 PM 44.1583 -73.5167 325° Northwest 147 169 10,100  Level Boston Center
Sun 03:23:32 PM 44.1956 -73.5461 330° Northwest 147 169 10,100  Level Boston Center
Sun 03:24:32 PM 44.2328 -73.5786 328° Northwest 147 169 10,100  Level Boston Center
Sun 03:25:32 PM 44.2742 -73.6144 328° Northwest 154 177 10,100  Level Boston Center
Sun 03:26:32 PM 44.2928 -73.6322 326° Northwest 149 171 10,100  Level Boston Center
Sun 03:27:32 PM 44.3278 -73.6733 320° Northwest 139 160 10,100  Level Boston Center
Sun 03:28:32 PM 44.3564 -73.7117 316° Northwest 134 154 10,100 -100 Level Boston Center
Sun 03:29:32 PM 44.3936 -73.7331 338° Northwest 134 154 9,900 -350 Descending Boston Center
Sun 03:30:32 PM 44.4350 -73.7572 337° Northwest 141 162 9,400 -550 Descending Boston Center
Sun 03:31:32 PM 44.4658 -73.7956 318° Northwest 148 170 8,800 -600 Descending Boston Center
Sun 03:32:32 PM 44.4903 -73.8339 312° West 148 170 8,200 -650 Descending Boston Center
Sun 03:33:32 PM 44.5150 -73.8783 308° West 142 163 7,500 -750 Descending Boston Center
Sun 03:34:32 PM 44.5392 -73.9311 303° West 148 170 6,700 -800 Descending Boston Center

Login

Don't have an account? Register now (free) for customized features, flight alerts, and more!